ARG1517 SACO-SAME
Flight info
| Callsign | ARG1517 |
|---|---|
| Flight time | 0h 57m |
| Altitude | 30000 |
| Route | ALDEX UZ105 SOLER UL531 SALBO SALBO2Q |
| Aircraft | B738/M-SDE2E3FGHIRWXY/LB1 |
Departure
| Time | 2026-04-21 21:51 |
|---|---|
| Airport | Ingeniero Aeronáutico Ambrosio L.V. Taravella International Airport (SACO) |
Arrival
| Time | 2026-04-21 22:48 |
|---|---|
| Airport | Governor Francisco Gabrielli International Airport (SAME) |
| Time | Latitude | Longitude | Altitude | Speed | Heading |
|---|---|---|---|---|---|
| 2026-04-21 21:16 | -31.31617 | -64.21163 | 1555 ft | 0 kts | 268° |
| 2026-04-21 21:33 | -31.31616 | -64.21144 | 1556 ft | 2 kts | 266° |
| 2026-04-21 21:33 | -31.31614 | -64.21125 | 1556 ft | 2 kts | 261° |
| 2026-04-21 21:33 | -31.31610 | -64.21106 | 1556 ft | 2 kts | 227° |
| 2026-04-21 21:34 | -31.31598 | -64.21098 | 1556 ft | 1 kts | 187° |
| 2026-04-21 21:34 | -31.31595 | -64.21098 | 1556 ft | 0 kts | 187° |
| 2026-04-21 21:37 | -31.31599 | -64.21098 | 1556 ft | 2 kts | 185° |
| 2026-04-21 21:37 | -31.31620 | -64.21100 | 1555 ft | 0 kts | 180° |
| 2026-04-21 21:38 | -31.31621 | -64.21100 | 1555 ft | 1 kts | 180° |
| 2026-04-21 21:38 | -31.31629 | -64.21100 | 1555 ft | 3 kts | 180° |
| 2026-04-21 21:38 | -31.31669 | -64.21099 | 1554 ft | 8 kts | 178° |
| 2026-04-21 21:38 | -31.31725 | -64.21095 | 1553 ft | 7 kts | 169° |
| 2026-04-21 21:39 | -31.31766 | -64.21062 | 1552 ft | 8 kts | 139° |
| 2026-04-21 21:39 | -31.31825 | -64.21030 | 1550 ft | 11 kts | 174° |
| 2026-04-21 21:39 | -31.31909 | -64.21028 | 1541 ft | 13 kts | 179° |
| 2026-04-21 21:39 | -31.31996 | -64.21026 | 1544 ft | 12 kts | 179° |
| 2026-04-21 21:40 | -31.32081 | -64.21025 | 1537 ft | 13 kts | 179° |
| 2026-04-21 21:40 | -31.32167 | -64.21023 | 1539 ft | 12 kts | 179° |
| 2026-04-21 21:40 | -31.32248 | -64.21022 | 1537 ft | 12 kts | 179° |
| 2026-04-21 21:40 | -31.32317 | -64.21021 | 1533 ft | 9 kts | 179° |
| 2026-04-21 21:41 | -31.32377 | -64.21016 | 1533 ft | 9 kts | 165° |
| 2026-04-21 21:41 | -31.32398 | -64.21004 | 1534 ft | 0 kts | 145° |
| 2026-04-21 21:42 | -31.32402 | -64.21001 | 1534 ft | 2 kts | 145° |
| 2026-04-21 21:42 | -31.32422 | -64.20979 | 1537 ft | 6 kts | 130° |
| 2026-04-21 21:42 | -31.32435 | -64.20922 | 1532 ft | 9 kts | 92° |
| 2026-04-21 21:42 | -31.32408 | -64.20849 | 1535 ft | 11 kts | 44° |
| 2026-04-21 21:43 | -31.32347 | -64.20781 | 1525 ft | 13 kts | 44° |
| 2026-04-21 21:43 | -31.32283 | -64.20708 | 1533 ft | 13 kts | 43° |
| 2026-04-21 21:43 | -31.32219 | -64.20638 | 1532 ft | 12 kts | 44° |
| 2026-04-21 21:43 | -31.32155 | -64.20566 | 1530 ft | 13 kts | 44° |
| 2026-04-21 21:44 | -31.32089 | -64.20492 | 1535 ft | 13 kts | 43° |
| 2026-04-21 21:44 | -31.32025 | -64.20419 | 1537 ft | 13 kts | 44° |
| 2026-04-21 21:44 | -31.31964 | -64.20350 | 1538 ft | 12 kts | 44° |
| 2026-04-21 21:44 | -31.31903 | -64.20281 | 1537 ft | 12 kts | 44° |
| 2026-04-21 21:45 | -31.31844 | -64.20215 | 1541 ft | 12 kts | 44° |
| 2026-04-21 21:45 | -31.31786 | -64.20150 | 1536 ft | 11 kts | 44° |
| 2026-04-21 21:45 | -31.31730 | -64.20087 | 1542 ft | 11 kts | 43° |
| 2026-04-21 21:45 | -31.31675 | -64.20026 | 1535 ft | 11 kts | 44° |
| 2026-04-21 21:46 | -31.31623 | -64.19966 | 1540 ft | 10 kts | 43° |
| 2026-04-21 21:46 | -31.31569 | -64.19907 | 1538 ft | 11 kts | 44° |
| 2026-04-21 21:46 | -31.31512 | -64.19842 | 1540 ft | 12 kts | 45° |
| 2026-04-21 21:46 | -31.31452 | -64.19774 | 1540 ft | 12 kts | 44° |
| 2026-04-21 21:47 | -31.31390 | -64.19705 | 1541 ft | 12 kts | 44° |
| 2026-04-21 21:47 | -31.31330 | -64.19638 | 1545 ft | 12 kts | 44° |
| 2026-04-21 21:47 | -31.31272 | -64.19572 | 1547 ft | 12 kts | 44° |
| 2026-04-21 21:47 | -31.31213 | -64.19506 | 1540 ft | 12 kts | 44° |
| 2026-04-21 21:48 | -31.31156 | -64.19442 | 1549 ft | 11 kts | 44° |
| 2026-04-21 21:48 | -31.31100 | -64.19379 | 1550 ft | 11 kts | 44° |
| 2026-04-21 21:48 | -31.31047 | -64.19318 | 1550 ft | 11 kts | 44° |
| 2026-04-21 21:48 | -31.30999 | -64.19265 | 1550 ft | 8 kts | 43° |
| 2026-04-21 21:49 | -31.30954 | -64.19237 | 1551 ft | 7 kts | 32° |
| 2026-04-21 21:49 | -31.30932 | -64.19206 | 1551 ft | 4 kts | 84° |
| 2026-04-21 21:49 | -31.30938 | -64.19196 | 1551 ft | 0 kts | 141° |
| 2026-04-21 21:49 | -31.30942 | -64.19197 | 1551 ft | 0 kts | 187° |
| 2026-04-21 21:50 | -31.30948 | -64.19204 | 1551 ft | 3 kts | 225° |
| 2026-04-21 21:50 | -31.30972 | -64.19233 | 1550 ft | 8 kts | 224° |
| 2026-04-21 21:50 | -31.31068 | -64.19344 | 1550 ft | 45 kts | 224° |
| 2026-04-21 21:50 | -31.31494 | -64.19823 | 1539 ft | 123 kts | 224° |
| 2026-04-21 21:51 | -31.32261 | -64.20689 | 1662 ft | 175 kts | 224° |
| 2026-04-21 21:51 | -31.33131 | -64.21720 | 2618 ft | 171 kts | 224° |
| 2026-04-21 21:51 | -31.33937 | -64.22673 | 3675 ft | 166 kts | 226° |
| 2026-04-21 21:51 | -31.34479 | -64.23949 | 4204 ft | 194 kts | 256° |
| 2026-04-21 21:52 | -31.34823 | -64.25603 | 4485 ft | 224 kts | 254° |
| 2026-04-21 21:52 | -31.35251 | -64.27392 | 4856 ft | 243 kts | 253° |
| 2026-04-21 21:52 | -31.35757 | -64.29322 | 5402 ft | 257 kts | 252° |
| 2026-04-21 21:52 | -31.36336 | -64.31370 | 6064 ft | 270 kts | 252° |
| 2026-04-21 21:53 | -31.36958 | -64.33447 | 7056 ft | 270 kts | 251° |
| 2026-04-21 21:53 | -31.37604 | -64.35520 | 7987 ft | 273 kts | 251° |
| 2026-04-21 21:53 | -31.38275 | -64.37612 | 8913 ft | 276 kts | 250° |
| 2026-04-21 21:53 | -31.38968 | -64.39725 | 9836 ft | 280 kts | 250° |
| 2026-04-21 21:54 | -31.39680 | -64.41868 | 10544 ft | 291 kts | 250° |
| 2026-04-21 21:54 | -31.40452 | -64.44175 | 10757 ft | 318 kts | 250° |
| 2026-04-21 21:54 | -31.41290 | -64.46661 | 11087 ft | 337 kts | 250° |
| 2026-04-21 21:54 | -31.42152 | -64.49196 | 11818 ft | 341 kts | 250° |
| 2026-04-21 21:55 | -31.43045 | -64.51817 | 12679 ft | 342 kts | 250° |
| 2026-04-21 21:55 | -31.43917 | -64.54371 | 13509 ft | 344 kts | 250° |
| 2026-04-21 21:55 | -31.44811 | -64.56986 | 14284 ft | 346 kts | 250° |
| 2026-04-21 21:55 | -31.45704 | -64.59603 | 15075 ft | 346 kts | 250° |
| 2026-04-21 21:56 | -31.46596 | -64.62215 | 15920 ft | 344 kts | 250° |
| 2026-04-21 21:56 | -31.47487 | -64.64828 | 16614 ft | 347 kts | 250° |
| 2026-04-21 21:56 | -31.48383 | -64.67459 | 17392 ft | 347 kts | 251° |
| 2026-04-21 21:56 | -31.49276 | -64.70081 | 18218 ft | 346 kts | 251° |
| 2026-04-21 21:57 | -31.50172 | -64.72714 | 18830 ft | 348 kts | 251° |
| 2026-04-21 21:57 | -31.51060 | -64.75328 | 19380 ft | 351 kts | 251° |
| 2026-04-21 21:57 | -31.51966 | -64.77998 | 19946 ft | 354 kts | 251° |
| 2026-04-21 21:57 | -31.52879 | -64.80689 | 20536 ft | 356 kts | 251° |
| 2026-04-21 21:58 | -31.53796 | -64.83396 | 21134 ft | 358 kts | 251° |
| 2026-04-21 21:58 | -31.54719 | -64.86119 | 21718 ft | 361 kts | 251° |
| 2026-04-21 21:58 | -31.55649 | -64.88867 | 22273 ft | 364 kts | 251° |
| 2026-04-21 21:58 | -31.56587 | -64.91642 | 22819 ft | 367 kts | 251° |
| 2026-04-21 21:59 | -31.57530 | -64.94431 | 23432 ft | 368 kts | 251° |
| 2026-04-21 21:59 | -31.58470 | -64.97211 | 24118 ft | 365 kts | 252° |
| 2026-04-21 21:59 | -31.59397 | -64.99958 | 24797 ft | 360 kts | 252° |
| 2026-04-21 21:59 | -31.60315 | -65.02679 | 25491 ft | 356 kts | 252° |
| 2026-04-21 22:00 | -31.61221 | -65.05367 | 26175 ft | 353 kts | 253° |
| 2026-04-21 22:00 | -31.62120 | -65.08036 | 26828 ft | 350 kts | 253° |
| 2026-04-21 22:00 | -31.63010 | -65.10686 | 27460 ft | 348 kts | 253° |
| 2026-04-21 22:00 | -31.63893 | -65.13313 | 28098 ft | 345 kts | 253° |
| 2026-04-21 22:01 | -31.64760 | -65.15894 | 28739 ft | 342 kts | 253° |
| 2026-04-21 22:01 | -31.65630 | -65.18486 | 29381 ft | 340 kts | 254° |
| 2026-04-21 22:01 | -31.66498 | -65.21060 | 29983 ft | 338 kts | 254° |
| 2026-04-21 22:02 | -31.68290 | -65.26270 | 30075 ft | 345 kts | 253° |
| 2026-04-21 22:02 | -31.70077 | -65.31427 | 30074 ft | 337 kts | 253° |
| 2026-04-21 22:03 | -31.71835 | -65.36531 | 30090 ft | 339 kts | 254° |
| 2026-04-21 22:03 | -31.73607 | -65.41694 | 30087 ft | 341 kts | 253° |
| 2026-04-21 22:04 | -31.75383 | -65.46876 | 30087 ft | 342 kts | 253° |
| 2026-04-21 22:04 | -31.77146 | -65.52023 | 30081 ft | 342 kts | 253° |
| 2026-04-21 22:05 | -31.78915 | -65.57199 | 30074 ft | 341 kts | 253° |
| 2026-04-21 22:05 | -31.80678 | -65.62364 | 30077 ft | 340 kts | 254° |
| 2026-04-21 22:06 | -31.82433 | -65.67517 | 30079 ft | 339 kts | 254° |
| 2026-04-21 22:06 | -31.84184 | -65.72662 | 30074 ft | 338 kts | 254° |
| 2026-04-21 22:07 | -31.85930 | -65.77807 | 30083 ft | 338 kts | 254° |
| 2026-04-21 22:07 | -31.87674 | -65.82948 | 30080 ft | 339 kts | 254° |
| 2026-04-21 22:08 | -31.89408 | -65.88072 | 30079 ft | 339 kts | 254° |
| 2026-04-21 22:08 | -31.91155 | -65.93241 | 30087 ft | 340 kts | 254° |
| 2026-04-21 22:09 | -31.92903 | -65.98419 | 30079 ft | 340 kts | 254° |
| 2026-04-21 22:09 | -31.94640 | -66.03599 | 30084 ft | 340 kts | 254° |
| 2026-04-21 22:10 | -31.96368 | -66.08786 | 30088 ft | 340 kts | 254° |
| 2026-04-21 22:10 | -31.98093 | -66.13973 | 30084 ft | 340 kts | 254° |
| 2026-04-21 22:11 | -31.99815 | -66.19155 | 30083 ft | 339 kts | 254° |
| 2026-04-21 22:11 | -32.01533 | -66.24335 | 30075 ft | 339 kts | 254° |
| 2026-04-21 22:12 | -32.03235 | -66.29474 | 30082 ft | 339 kts | 254° |
| 2026-04-21 22:12 | -32.04944 | -66.34642 | 30087 ft | 338 kts | 254° |
| 2026-04-21 22:13 | -32.06651 | -66.39813 | 30082 ft | 339 kts | 254° |
| 2026-04-21 22:13 | -32.08360 | -66.44996 | 30083 ft | 339 kts | 254° |
| 2026-04-21 22:14 | -32.10067 | -66.50181 | 30080 ft | 339 kts | 254° |
| 2026-04-21 22:14 | -32.11784 | -66.55382 | 30083 ft | 340 kts | 254° |
| 2026-04-21 22:15 | -32.13489 | -66.60531 | 30083 ft | 340 kts | 254° |
| 2026-04-21 22:15 | -32.15207 | -66.65725 | 30083 ft | 340 kts | 254° |
| 2026-04-21 22:16 | -32.16909 | -66.70884 | 30081 ft | 339 kts | 254° |
| 2026-04-21 22:16 | -32.18614 | -66.76060 | 30071 ft | 335 kts | 254° |
| 2026-04-21 22:17 | -32.20277 | -66.81109 | 30074 ft | 328 kts | 254° |
| 2026-04-21 22:17 | -32.21931 | -66.86156 | 29881 ft | 331 kts | 254° |
| 2026-04-21 22:17 | -32.22756 | -66.88670 | 29640 ft | 325 kts | 254° |
| 2026-04-21 22:18 | -32.23566 | -66.91140 | 29283 ft | 320 kts | 254° |
| 2026-04-21 22:18 | -32.24366 | -66.93580 | 28891 ft | 316 kts | 254° |
| 2026-04-21 22:18 | -32.25155 | -66.95990 | 28509 ft | 313 kts | 254° |
| 2026-04-21 22:18 | -32.25937 | -66.98385 | 28119 ft | 310 kts | 254° |
| 2026-04-21 22:19 | -32.26711 | -67.00752 | 27735 ft | 307 kts | 254° |
| 2026-04-21 22:19 | -32.27476 | -67.03099 | 27376 ft | 305 kts | 254° |
| 2026-04-21 22:19 | -32.28237 | -67.05435 | 27009 ft | 303 kts | 254° |
| 2026-04-21 22:19 | -32.28993 | -67.07755 | 26646 ft | 301 kts | 254° |
| 2026-04-21 22:20 | -32.29742 | -67.10057 | 26273 ft | 299 kts | 254° |
| 2026-04-21 22:20 | -32.30489 | -67.12352 | 25918 ft | 298 kts | 254° |
| 2026-04-21 22:20 | -32.31229 | -67.14630 | 25566 ft | 297 kts | 254° |
| 2026-04-21 22:20 | -32.31967 | -67.16903 | 25213 ft | 295 kts | 254° |
| 2026-04-21 22:21 | -32.32703 | -67.19168 | 24857 ft | 295 kts | 253° |
| 2026-04-21 22:21 | -32.33425 | -67.21395 | 24507 ft | 294 kts | 253° |
| 2026-04-21 22:21 | -32.34156 | -67.23653 | 24145 ft | 294 kts | 253° |
| 2026-04-21 22:21 | -32.34887 | -67.25908 | 23785 ft | 294 kts | 253° |
| 2026-04-21 22:22 | -32.35618 | -67.28168 | 23390 ft | 293 kts | 253° |
| 2026-04-21 22:22 | -32.36345 | -67.30413 | 22999 ft | 292 kts | 253° |
| 2026-04-21 22:22 | -32.37067 | -67.32645 | 22639 ft | 290 kts | 253° |
| 2026-04-21 22:22 | -32.37786 | -67.34869 | 22283 ft | 288 kts | 253° |
| 2026-04-21 22:23 | -32.38499 | -67.37079 | 21934 ft | 286 kts | 253° |
| 2026-04-21 22:23 | -32.38971 | -67.38539 | 21706 ft | 285 kts | 253° |
| 2026-04-21 22:23 | -32.39675 | -67.40723 | 21363 ft | 284 kts | 253° |
| 2026-04-21 22:23 | -32.40377 | -67.42901 | 21025 ft | 282 kts | 253° |
| 2026-04-21 22:24 | -32.41076 | -67.45072 | 20692 ft | 281 kts | 253° |
| 2026-04-21 22:24 | -32.41995 | -67.47927 | 20255 ft | 280 kts | 253° |
| 2026-04-21 22:24 | -32.42460 | -67.49376 | 20037 ft | 279 kts | 253° |
| 2026-04-21 22:24 | -32.43150 | -67.51521 | 19702 ft | 278 kts | 253° |
| 2026-04-21 22:25 | -32.43838 | -67.53665 | 19368 ft | 278 kts | 253° |
| 2026-04-21 22:25 | -32.44514 | -67.55772 | 19056 ft | 277 kts | 253° |
| 2026-04-21 22:25 | -32.45197 | -67.57902 | 18712 ft | 277 kts | 253° |
| 2026-04-21 22:25 | -32.45881 | -67.60037 | 18374 ft | 277 kts | 253° |
| 2026-04-21 22:26 | -32.46565 | -67.62173 | 17998 ft | 277 kts | 253° |
| 2026-04-21 22:26 | -32.47246 | -67.64299 | 17652 ft | 276 kts | 253° |
| 2026-04-21 22:26 | -32.47924 | -67.66421 | 17312 ft | 275 kts | 253° |
| 2026-04-21 22:26 | -32.48602 | -67.68539 | 16984 ft | 274 kts | 253° |
| 2026-04-21 22:27 | -32.49273 | -67.70640 | 16654 ft | 272 kts | 253° |
| 2026-04-21 22:27 | -32.49943 | -67.72737 | 16332 ft | 271 kts | 253° |
| 2026-04-21 22:27 | -32.50610 | -67.74828 | 15998 ft | 270 kts | 253° |
| 2026-04-21 22:27 | -32.51301 | -67.76900 | 15685 ft | 272 kts | 248° |
| 2026-04-21 22:28 | -32.52349 | -67.78817 | 15200 ft | 282 kts | 238° |
| 2026-04-21 22:28 | -32.53531 | -67.80641 | 14830 ft | 283 kts | 237° |
| 2026-04-21 22:28 | -32.54742 | -67.82477 | 14513 ft | 283 kts | 237° |
| 2026-04-21 22:28 | -32.55953 | -67.84318 | 14189 ft | 282 kts | 238° |
| 2026-04-21 22:29 | -32.57152 | -67.86155 | 13860 ft | 282 kts | 238° |
| 2026-04-21 22:29 | -32.58350 | -67.88001 | 13504 ft | 282 kts | 238° |
| 2026-04-21 22:29 | -32.59538 | -67.89841 | 13169 ft | 281 kts | 238° |
| 2026-04-21 22:29 | -32.60722 | -67.91679 | 12836 ft | 279 kts | 237° |
| 2026-04-21 22:30 | -32.61897 | -67.93508 | 12520 ft | 278 kts | 237° |
| 2026-04-21 22:30 | -32.63066 | -67.95330 | 12205 ft | 277 kts | 237° |
| 2026-04-21 22:30 | -32.64229 | -67.97146 | 11896 ft | 276 kts | 237° |
| 2026-04-21 22:30 | -32.65388 | -67.98957 | 11583 ft | 275 kts | 237° |
| 2026-04-21 22:31 | -32.66544 | -68.00764 | 11267 ft | 274 kts | 237° |
| 2026-04-21 22:31 | -32.67698 | -68.02569 | 10957 ft | 274 kts | 237° |
| 2026-04-21 22:31 | -32.68831 | -68.04344 | 10644 ft | 273 kts | 237° |
| 2026-04-21 22:31 | -32.69978 | -68.06140 | 10344 ft | 272 kts | 236° |
| 2026-04-21 22:32 | -32.71107 | -68.07909 | 10204 ft | 265 kts | 236° |
| 2026-04-21 22:32 | -32.72210 | -68.09637 | 10011 ft | 260 kts | 236° |
| 2026-04-21 22:32 | -32.73302 | -68.11350 | 9705 ft | 260 kts | 236° |
| 2026-04-21 22:32 | -32.74391 | -68.13059 | 9406 ft | 259 kts | 236° |
| 2026-04-21 22:33 | -32.75478 | -68.14766 | 9116 ft | 258 kts | 236° |
| 2026-04-21 22:33 | -32.76543 | -68.16436 | 9059 ft | 251 kts | 235° |
| 2026-04-21 22:33 | -32.77609 | -68.18108 | 9004 ft | 259 kts | 235° |
| 2026-04-21 22:33 | -32.78714 | -68.19844 | 8948 ft | 266 kts | 235° |
| 2026-04-21 22:34 | -32.79839 | -68.21610 | 8874 ft | 267 kts | 235° |
| 2026-04-21 22:34 | -32.80957 | -68.23365 | 8764 ft | 266 kts | 235° |
| 2026-04-21 22:34 | -32.82073 | -68.25116 | 8644 ft | 265 kts | 235° |
| 2026-04-21 22:34 | -32.83182 | -68.26859 | 8571 ft | 264 kts | 234° |
| 2026-04-21 22:35 | -32.84288 | -68.28597 | 8513 ft | 263 kts | 234° |
| 2026-04-21 22:35 | -32.85394 | -68.30337 | 8449 ft | 263 kts | 234° |
| 2026-04-21 22:35 | -32.86495 | -68.32069 | 8392 ft | 262 kts | 234° |
| 2026-04-21 22:35 | -32.87596 | -68.33804 | 8333 ft | 263 kts | 234° |
| 2026-04-21 22:36 | -32.89784 | -68.37251 | 8222 ft | 263 kts | 234° |
| 2026-04-21 22:36 | -32.90872 | -68.38965 | 8194 ft | 254 kts | 234° |
| 2026-04-21 22:36 | -32.91917 | -68.40613 | 8097 ft | 238 kts | 234° |
| 2026-04-21 22:37 | -32.92831 | -68.42053 | 7999 ft | 226 kts | 234° |
| 2026-04-21 22:37 | -32.93696 | -68.43419 | 7913 ft | 213 kts | 234° |
| 2026-04-21 22:37 | -32.94565 | -68.44789 | 7835 ft | 199 kts | 234° |
| 2026-04-21 22:37 | -32.95378 | -68.46075 | 7828 ft | 190 kts | 234° |
| 2026-04-21 22:38 | -32.96173 | -68.47333 | 7845 ft | 194 kts | 234° |
| 2026-04-21 22:38 | -32.97002 | -68.48646 | 7858 ft | 202 kts | 234° |
| 2026-04-21 22:38 | -32.97854 | -68.49995 | 7823 ft | 204 kts | 234° |
| 2026-04-21 22:38 | -32.98701 | -68.51336 | 7777 ft | 201 kts | 234° |
| 2026-04-21 22:39 | -32.99525 | -68.52639 | 7740 ft | 198 kts | 234° |
| 2026-04-21 22:39 | -33.00348 | -68.53942 | 7691 ft | 196 kts | 234° |
| 2026-04-21 22:39 | -33.01164 | -68.55234 | 7658 ft | 195 kts | 234° |
| 2026-04-21 22:39 | -33.01984 | -68.56534 | 7624 ft | 197 kts | 234° |
| 2026-04-21 22:40 | -33.02811 | -68.57846 | 7591 ft | 199 kts | 234° |
| 2026-04-21 22:40 | -33.03646 | -68.59170 | 7548 ft | 201 kts | 234° |
| 2026-04-21 22:40 | -33.04488 | -68.60505 | 7501 ft | 201 kts | 234° |
| 2026-04-21 22:40 | -33.05213 | -68.61930 | 7389 ft | 204 kts | 256° |
| 2026-04-21 22:41 | -33.05284 | -68.63610 | 7257 ft | 204 kts | 270° |
| 2026-04-21 22:41 | -33.05265 | -68.65322 | 7058 ft | 206 kts | 269° |
| 2026-04-21 22:41 | -33.05251 | -68.67022 | 6853 ft | 203 kts | 269° |
| 2026-04-21 22:41 | -33.05237 | -68.68695 | 6658 ft | 200 kts | 269° |
| 2026-04-21 22:42 | -33.05222 | -68.70335 | 6463 ft | 195 kts | 269° |
| 2026-04-21 22:42 | -33.05207 | -68.71945 | 6267 ft | 194 kts | 269° |
| 2026-04-21 22:42 | -33.05191 | -68.73553 | 6084 ft | 195 kts | 269° |
| 2026-04-21 22:42 | -33.05175 | -68.75178 | 5912 ft | 197 kts | 269° |
| 2026-04-21 22:43 | -33.05157 | -68.76830 | 5728 ft | 202 kts | 271° |
| 2026-04-21 22:43 | -33.04738 | -68.78392 | 5496 ft | 204 kts | 311° |
| 2026-04-21 22:43 | -33.03542 | -68.79164 | 5408 ft | 196 kts | 352° |
| 2026-04-21 22:43 | -33.02176 | -68.79337 | 5294 ft | 199 kts | 353° |
| 2026-04-21 22:44 | -33.00804 | -68.79485 | 5172 ft | 196 kts | 357° |
| 2026-04-21 22:44 | -32.99472 | -68.79517 | 5053 ft | 187 kts | 0° |
| 2026-04-21 22:44 | -32.98205 | -68.79506 | 4987 ft | 178 kts | 1° |
| 2026-04-21 22:44 | -32.96968 | -68.79488 | 4850 ft | 179 kts | 1° |
| 2026-04-21 22:45 | -32.95724 | -68.79469 | 4613 ft | 177 kts | 1° |
| 2026-04-21 22:45 | -32.94500 | -68.79451 | 4377 ft | 174 kts | 2° |
| 2026-04-21 22:45 | -32.93314 | -68.79434 | 4149 ft | 165 kts | 2° |
| 2026-04-21 22:45 | -32.92203 | -68.79418 | 3930 ft | 155 kts | 2° |
| 2026-04-21 22:46 | -32.91170 | -68.79403 | 3741 ft | 149 kts | 1° |
| 2026-04-21 22:46 | -32.90133 | -68.79387 | 3568 ft | 151 kts | 1° |
| 2026-04-21 22:46 | -32.89085 | -68.79399 | 3388 ft | 152 kts | 359° |
| 2026-04-21 22:46 | -32.88039 | -68.79424 | 3218 ft | 151 kts | 0° |
| 2026-04-21 22:47 | -32.86989 | -68.79396 | 2993 ft | 151 kts | 2° |
| 2026-04-21 22:47 | -32.85943 | -68.79362 | 2726 ft | 148 kts | 2° |
| 2026-04-21 22:47 | -32.84936 | -68.79327 | 2496 ft | 143 kts | 3° |
| 2026-04-21 22:47 | -32.83937 | -68.79301 | 2338 ft | 138 kts | 1° |
| 2026-04-21 22:48 | -32.83062 | -68.79288 | 2307 ft | 108 kts | 0° |
| 2026-04-21 22:48 | -32.82549 | -68.79286 | 2305 ft | 28 kts | 349° |
| 2026-04-21 22:48 | -32.82406 | -68.79277 | 2308 ft | 21 kts | 1° |
| 2026-04-21 22:48 | -32.82257 | -68.79274 | 2302 ft | 21 kts | 0° |
| 2026-04-21 22:49 | -32.82109 | -68.79273 | 2308 ft | 21 kts | 1° |
| 2026-04-21 22:49 | -32.81999 | -68.79276 | 2307 ft | 13 kts | 346° |
| 2026-04-21 22:49 | -32.81938 | -68.79333 | 2301 ft | 7 kts | 299° |
| 2026-04-21 22:49 | -32.81947 | -68.79378 | 2307 ft | 6 kts | 198° |
| 2026-04-21 22:50 | -32.81932 | -68.79416 | 2300 ft | 0 kts | 270° |
| 2026-04-21 22:50 | -32.81932 | -68.79421 | 2298 ft | 1 kts | 269° |
| 2026-04-21 22:50 | -32.81933 | -68.79444 | 2298 ft | 4 kts | 265° |
| 2026-04-21 22:51 | -32.81952 | -68.79483 | 2305 ft | 7 kts | 219° |
| 2026-04-21 22:51 | -32.82005 | -68.79496 | 2306 ft | 9 kts | 180° |
| 2026-04-21 22:51 | -32.82075 | -68.79497 | 2308 ft | 11 kts | 181° |
| 2026-04-21 22:51 | -32.82159 | -68.79500 | 2309 ft | 13 kts | 181° |
| 2026-04-21 22:52 | -32.82254 | -68.79500 | 2307 ft | 13 kts | 181° |
| 2026-04-21 22:52 | -32.82352 | -68.79501 | 2308 ft | 14 kts | 180° |
| 2026-04-21 22:52 | -32.82442 | -68.79502 | 2309 ft | 15 kts | 180° |
| 2026-04-21 22:52 | -32.82540 | -68.79504 | 2310 ft | 14 kts | 180° |
| 2026-04-21 22:53 | -32.82611 | -68.79505 | 2307 ft | 7 kts | 181° |
| 2026-04-21 22:53 | -32.82653 | -68.79529 | 2309 ft | 7 kts | 229° |
| 2026-04-21 22:53 | -32.82671 | -68.79581 | 2304 ft | 7 kts | 256° |
| 2026-04-21 22:53 | -32.82673 | -68.79637 | 2309 ft | 7 kts | 271° |
| 2026-04-21 22:54 | -32.82676 | -68.79693 | 2308 ft | 7 kts | 255° |
| 2026-04-21 22:54 | -32.82718 | -68.79708 | 2312 ft | 7 kts | 181° |
| 2026-04-21 22:54 | -32.82765 | -68.79712 | 2309 ft | 7 kts | 197° |
| 2026-04-21 22:54 | -32.82791 | -68.79755 | 2314 ft | 7 kts | 252° |
| 2026-04-21 22:55 | -32.82795 | -68.79777 | 2310 ft | 0 kts | 259° |